Time;durP1;ratioP1;P1;durP2;ratioP2;P2;SDS_P1;SDS_P2;PMS_P1;PMS_P2;Temp;Humidity;BMP_temperature;BMP_pressure;BME280_temperature;BME280_humidity;BME280_pressure;Samples;Min_cycle;Max_cycle;Signal;HPM_P1;HPM_P2
2023/01/05 00:01:02;;;;;;;;;;;;;;;;;;5083960;28;19932;-83
2023/01/05 00:03:29;;;;;;;;;;;;;;;;;;5087711;28;19936;-85
2023/01/05 00:05:57;;;;;;;;;;;;;;;;;;5081181;28;19928;-83
2023/01/05 00:08:29;;;;;;;;;;;;;;;;;;5089465;28;19935;-83
2023/01/05 00:24:59;;;;;;;;;;;;;;;;;;5082177;28;19935;-83
2023/01/05 00:27:27;;;;;;;;;;;;;;;;;;5088706;28;19931;-82
2023/01/05 00:29:54;;;;;;;;;;;;;;;;;;5087174;28;19928;-84
2023/01/05 00:32:22;;;;;;;;;;;;;;;;;;5083148;28;19924;-83
2023/01/05 00:34:53;;;;;;;;;;;;;;;;;;5092327;28;19931;-85
2023/01/05 00:37:20;;;;;;;;;;;;;;;;;;5080042;28;19924;-83
2023/01/05 00:39:48;;;;;;;;;;;;;;;;;;5079034;28;19924;-84
2023/01/05 00:42:15;;;;;;;;;;;;;;;;;;5084952;28;20379;-81
2023/01/05 00:44:48;;;;;;;;;;;;;;;;;;5080359;28;20402;-83
2023/01/05 00:47:16;;;;;;;;;;;;;;;;;;5092059;28;19932;-82
2023/01/05 00:49:43;;;;;;;;;;;;;;;;;;5089778;28;19928;-82
2023/01/05 00:52:16;;;;;;;;;;;;;;;;;;5090593;28;20335;-82
2023/01/05 00:54:43;;;;;;;;;;;;;;;;;;5092828;28;20324;-83
2023/01/05 00:57:11;;;;;;;;;;;;;;;;;;5080353;28;19924;-82
2023/01/05 00:59:43;;;;;;;;;;;;;;;;;;5081478;28;19935;-82
2023/01/05 01:02:11;;;;;;;;;;;;;;;;;;5084701;28;19928;-83
2023/01/05 01:04:38;;;;;;;;;;;;;;;;;;5091669;28;19952;-83
2023/01/05 01:07:06;;;;;;;;;;;;;;;;;;5098144;28;20010;-86
2023/01/05 01:09:33;;;;;;;;;;;;;;;;;;5100586;28;19935;-82
2023/01/05 01:12:01;;;;;;;;;;;;;;;;;;5098182;28;19924;-83
2023/01/05 01:14:28;;;;;;;;;;;;;;;;;;5080801;28;19929;-83
2023/01/05 01:16:56;;;;;;;;;;;;;;;;;;5084892;28;19924;-82
2023/01/05 01:19:23;;;;;;;;;;;;;;;;;;5092702;28;19932;-82
2023/01/05 01:21:51;;;;;;;;;;;;;;;;;;5078917;28;19932;-82
2023/01/05 01:24:18;;;;;;;;;;;;;;;;;;5086914;28;20274;-82
2023/01/05 01:26:46;;;;;;;;;;;;;;;;;;5081639;28;19935;-82
2023/01/05 01:29:18;;;;;;;;;;;;;;;;;;5082570;28;19924;-83
2023/01/05 01:31:51;;;;;;;;;;;;;;;;;;5076995;28;19929;-84
2023/01/05 01:34:23;;;;;;;;;;;;;;;;;;5087210;28;19928;-83
2023/01/05 01:36:51;;;;;;;;;;;;;;;;;;5084646;28;19950;-84
2023/01/05 01:39:28;;;;;;;;;;;;;;;;;;5092094;28;19972;-84
2023/01/05 01:42:00;;;;;;;;;;;;;;;;;;5084229;28;19994;-84
2023/01/05 01:44:33;;;;;;;;;;;;;;;;;;5090796;28;19924;-84
2023/01/05 01:47:05;;;;;;;;;;;;;;;;;;5088748;28;20320;-84
2023/01/05 01:49:33;;;;;;;;;;;;;;;;;;5090324;28;19939;-82
2023/01/05 01:52:05;;;;;;;;;;;;;;;;;;5080980;28;19931;-83
2023/01/05 01:54:32;;;;;;;;;;;;;;;;;;5089878;28;19924;-83
2023/01/05 01:57:05;;;;;;;;;;;;;;;;;;5079616;28;19982;-86
2023/01/05 01:59:32;;;;;;;;;;;;;;;;;;5095483;28;19994;-83
2023/01/05 02:02:00;;;;;;;;;;;;;;;;;;5085398;28;19932;-82
2023/01/05 02:04:27;;;;;;;;;;;;;;;;;;5088116;28;19937;-82
2023/01/05 02:07:00;;;;;;;;;;;;;;;;;;5083031;28;19932;-83
2023/01/05 02:09:28;;;;;;;;;;;;;;;;;;5080932;28;19940;-82
2023/01/05 02:12:01;;;;;;;;;;;;;;;;;;5090578;28;19947;-82
2023/01/05 02:14:33;;;;;;;;;;;;;;;;;;5098749;28;19931;-82
2023/01/05 02:17:05;;;;;;;;;;;;;;;;;;5086672;28;20482;-84
2023/01/05 02:19:38;;;;;;;;;;;;;;;;;;5082936;28;20395;-82
2023/01/05 02:22:10;;;;;;;;;;;;;;;;;;5079137;28;20448;-82
2023/01/05 02:24:43;;;;;;;;;;;;;;;;;;5090215;28;20372;-84
2023/01/05 02:27:15;;;;;;;;;;;;;;;;;;5087960;28;19924;-82
2023/01/05 02:29:48;;;;;;;;;;;;;;;;;;5084968;28;19928;-86
2023/01/05 02:32:15;;;;;;;;;;;;;;;;;;5085149;28;19924;-86
2023/01/05 02:34:48;;;;;;;;;;;;;;;;;;5084314;28;20380;-86
2023/01/05 02:37:20;;;;;;;;;;;;;;;;;;5083474;28;19924;-84
2023/01/05 02:39:54;;;;;;;;;;;;;;;;;;5087995;28;20277;-83
2023/01/05 02:42:22;;;;;;;;;;;;;;;;;;5083352;28;19928;-84
2023/01/05 02:44:54;;;;;;;;;;;;;;;;;;5086165;28;19935;-83
2023/01/05 02:47:22;;;;;;;;;;;;;;;;;;5081039;28;19924;-85
2023/01/05 02:49:49;;;;;;;;;;;;;;;;;;5078756;28;19929;-83
2023/01/05 02:52:22;;;;;;;;;;;;;;;;;;5090181;28;19931;-84
2023/01/05 02:54:54;;;;;;;;;;;;;;;;;;5090843;28;19931;-84
2023/01/05 02:57:45;;;;;;;;;;;;;;;;;;5082959;28;20308;-82
2023/01/05 03:00:19;;;;;;;;;;;;;;;;;;5084783;28;20456;-82
2023/01/05 03:02:52;;;;;;;;;;;;;;;;;;5081939;28;19924;-83
2023/01/05 03:05:20;;;;;;;;;;;;;;;;;;5086037;28;19928;-82
2023/01/05 03:07:53;;;;;;;;;;;;;;;;;;5082835;28;19931;-83
2023/01/05 03:16:04;;;;;;;;;;;;;;;;;;5089198;28;19932;-81
2023/01/05 03:19:34;;;;;;;;;;;;;;;;;;5085238;28;19935;-81
2023/01/05 03:21:28;;;;;;;;;;;;;;;;;;5083585;28;20292;-83
2023/01/05 03:38:02;;;;;;;;;;;;;;;;;;5087129;28;19924;-84
2023/01/05 03:40:29;;;;;;;;;;;;;;;;;;5087761;28;19924;-83
2023/01/05 03:42:57;;;;;;;;;;;;;;;;;;5079385;28;19929;-84
2023/01/05 03:45:24;;;;;;;;;;;;;;;;;;5090743;28;19932;-84
2023/01/05 03:47:54;;;;;;;;;;;;;;;;;;5083361;28;19931;-83
2023/01/05 03:50:25;;;;;;;;;;;;;;;;;;5096271;28;19935;-83
2023/01/05 03:52:52;;;;;;;;;;;;;;;;;;5094575;28;20285;-84
2023/01/05 03:55:20;;;;;;;;;;;;;;;;;;5085652;28;19925;-82
2023/01/05 03:57:53;;;;;;;;;;;;;;;;;;5087011;28;19994;-83
2023/01/05 04:00:26;;;;;;;;;;;;;;;;;;5101477;28;19935;-83
2023/01/05 04:03:03;;;;;;;;;;;;;;;;;;5086073;28;19924;-84
2023/01/05 04:05:36;;;;;;;;;;;;;;;;;;5091096;28;20256;-84
2023/01/05 04:08:09;;;;;;;;;;;;;;;;;;5085319;28;20955;-83
2023/01/05 04:10:42;;;;;;;;;;;;;;;;;;5085727;28;19924;-81
2023/01/05 04:13:11;;;;;;;;;;;;;;;;;;5093624;28;19931;-82
2023/01/05 04:15:43;;;;;;;;;;;;;;;;;;5084189;28;20262;-84
2023/01/05 04:18:16;;;;;;;;;;;;;;;;;;5082766;28;20392;-82
2023/01/05 04:20:44;;;;;;;;;;;;;;;;;;5087974;28;19931;-84
2023/01/05 04:23:12;;;;;;;;;;;;;;;;;;5092890;28;19932;-83
2023/01/05 04:25:40;;;;;;;;;;;;;;;;;;5093443;28;19935;-83
2023/01/05 04:28:18;;;;;;;;;;;;;;;;;;5092111;28;19931;-84
2023/01/05 04:30:53;;;;;;;;;;;;;;;;;;5089633;28;20296;-83
2023/01/05 04:33:26;;;;;;;;;;;;;;;;;;5091674;28;19924;-83
2023/01/05 04:35:54;;;;;;;;;;;;;;;;;;5092346;28;20407;-83
2023/01/05 04:38:25;;;;;;;;;;;;;;;;;;5082526;28;19928;-84
2023/01/05 04:40:57;;;;;;;;;;;;;;;;;;5080634;28;19932;-82
2023/01/05 04:43:30;;;;;;;;;;;;;;;;;;5074466;28;20304;-83
2023/01/05 04:46:02;;;;;;;;;;;;;;;;;;5089036;28;19947;-86
2023/01/05 04:48:36;;;;;;;;;;;;;;;;;;5093402;28;19924;-83
2023/01/05 04:51:04;;;;;;;;;;;;;;;;;;5089214;28;19931;-83
2023/01/05 04:53:35;;;;;;;;;;;;;;;;;;5084207;28;19932;-85
2023/01/05 04:56:04;;;;;;;;;;;;;;;;;;5087601;28;19924;-83
2023/01/05 04:58:37;;;;;;;;;;;;;;;;;;5084141;28;19924;-83
2023/01/05 05:01:05;;;;;;;;;;;;;;;;;;5085301;28;19931;-85
2023/01/05 05:03:39;;;;;;;;;;;;;;;;;;5081578;28;19932;-83
2023/01/05 05:06:09;;;;;;;;;;;;;;;;;;5088520;28;19935;-84
2023/01/05 05:08:42;;;;;;;;;;;;;;;;;;5100798;28;19924;-82
2023/01/05 05:11:15;;;;;;;;;;;;;;;;;;5088191;28;19924;-83
2023/01/05 05:13:45;;;;;;;;;;;;;;;;;;5089829;28;19925;-82
2023/01/05 05:16:13;;;;;;;;;;;;;;;;;;5087720;28;20403;-84
2023/01/05 05:18:47;;;;;;;;;;;;;;;;;;5087664;28;19924;-82
2023/01/05 05:21:25;;;;;;;;;;;;;;;;;;5080881;28;19932;-83
2023/01/05 05:23:57;;;;;;;;;;;;;;;;;;5086006;28;19924;-84
2023/01/05 05:26:30;;;;;;;;;;;;;;;;;;5083406;28;19957;-83
2023/01/05 05:28:59;;;;;;;;;;;;;;;;;;5077479;28;19932;-84
2023/01/05 05:31:26;;;;;;;;;;;;;;;;;;5088911;28;19931;-83
2023/01/05 05:33:59;;;;;;;;;;;;;;;;;;5092315;28;19929;-82
2023/01/05 05:36:26;;;;;;;;;;;;;;;;;;5089923;28;19947;-82
2023/01/05 05:38:59;;;;;;;;;;;;;;;;;;5086718;28;20325;-83
2023/01/05 05:41:31;;;;;;;;;;;;;;;;;;5083413;28;20014;-82
2023/01/05 05:44:01;;;;;;;;;;;;;;;;;;5085856;28;19999;-84
2023/01/05 05:46:33;;;;;;;;;;;;;;;;;;5089586;28;19939;-83
2023/01/05 05:49:07;;;;;;;;;;;;;;;;;;5082998;28;19924;-84
2023/01/05 05:51:40;;;;;;;;;;;;;;;;;;5079381;28;19948;-82
2023/01/05 05:54:12;;;;;;;;;;;;;;;;;;5078763;28;19963;-83
2023/01/05 05:56:45;;;;;;;;;;;;;;;;;;5089544;28;19924;-82
2023/01/05 05:59:17;;;;;;;;;;;;;;;;;;5089189;28;19935;-82
2023/01/05 06:01:45;;;;;;;;;;;;;;;;;;5081574;28;19931;-84
2023/01/05 06:04:18;;;;;;;;;;;;;;;;;;5083386;28;19925;-87
2023/01/05 06:06:45;;;;;;;;;;;;;;;;;;5084145;28;19931;-82
2023/01/05 06:09:18;;;;;;;;;;;;;;;;;;5085143;28;19928;-84
2023/01/05 06:11:50;;;;;;;;;;;;;;;;;;5085123;28;19928;-84
2023/01/05 06:14:18;;;;;;;;;;;;;;;;;;5088201;28;19925;-84
2023/01/05 06:16:45;;;;;;;;;;;;;;;;;;5091635;28;19924;-82
2023/01/05 06:19:13;;;;;;;;;;;;;;;;;;5086031;28;20300;-83
2023/01/05 06:21:45;;;;;;;;;;;;;;;;;;5088272;28;20373;-82
2023/01/05 06:24:13;;;;;;;;;;;;;;;;;;5083411;28;19947;-84
2023/01/05 06:26:40;;;;;;;;;;;;;;;;;;5083581;28;19928;-82
2023/01/05 06:29:13;;;;;;;;;;;;;;;;;;5084729;28;19924;-85
2023/01/05 06:31:40;;;;;;;;;;;;;;;;;;5087064;28;19935;-85
2023/01/05 06:34:13;;;;;;;;;;;;;;;;;;5088904;28;19936;-83
2023/01/05 06:36:45;;;;;;;;;;;;;;;;;;5084824;28;19947;-83
2023/01/05 06:39:13;;;;;;;;;;;;;;;;;;5080657;28;20612;-82
2023/01/05 06:41:40;;;;;;;;;;;;;;;;;;5085956;28;19927;-83
2023/01/05 06:44:13;;;;;;;;;;;;;;;;;;5082810;28;19924;-83
2023/01/05 06:46:45;;;;;;;;;;;;;;;;;;5087355;28;19931;-83
2023/01/05 06:49:18;;;;;;;;;;;;;;;;;;5084849;28;19924;-83
2023/01/05 06:51:45;;;;;;;;;;;;;;;;;;5083571;28;19924;-82
2023/01/05 06:54:13;;;;;;;;;;;;;;;;;;5086117;28;19928;-83
2023/01/05 06:56:45;;;;;;;;;;;;;;;;;;5085277;28;20388;-82
2023/01/05 06:59:13;;;;;;;;;;;;;;;;;;5091546;28;19924;-82
2023/01/05 07:01:40;;;;;;;;;;;;;;;;;;5086670;28;19935;-84
2023/01/05 07:04:08;;;;;;;;;;;;;;;;;;5083900;28;20277;-83
2023/01/05 07:06:35;;;;;;;;;;;;;;;;;;5084159;28;19947;-83
2023/01/05 07:09:08;;;;;;;;;;;;;;;;;;5084638;28;19932;-82
2023/01/05 07:11:40;;;;;;;;;;;;;;;;;;5089716;28;19928;-83
2023/01/05 07:14:13;;;;;;;;;;;;;;;;;;5083168;28;19924;-83
2023/01/05 07:16:45;;;;;;;;;;;;;;;;;;5082982;28;19924;-83
2023/01/05 07:19:18;;;;;;;;;;;;;;;;;;5084098;28;19931;-83
2023/01/05 07:21:45;;;;;;;;;;;;;;;;;;5086490;28;20373;-83
2023/01/05 07:24:18;;;;;;;;;;;;;;;;;;5087987;28;19935;-83
2023/01/05 07:26:45;;;;;;;;;;;;;;;;;;5082158;28;19924;-82
2023/01/05 07:29:18;;;;;;;;;;;;;;;;;;5085438;28;20774;-82
2023/01/05 07:31:46;;;;;;;;;;;;;;;;;;5087657;28;19925;-83
2023/01/05 07:34:18;;;;;;;;;;;;;;;;;;5084763;28;19925;-83
2023/01/05 07:36:53;;;;;;;;;;;;;;;;;;5084800;28;20442;-83
2023/01/05 07:39:25;;;;;;;;;;;;;;;;;;5082006;28;20373;-84
2023/01/05 07:41:58;;;;;;;;;;;;;;;;;;5087220;28;19924;-84
2023/01/05 07:44:30;;;;;;;;;;;;;;;;;;5090025;28;19924;-82
2023/01/05 07:47:03;;;;;;;;;;;;;;;;;;5081214;28;19925;-87
2023/01/05 07:49:35;;;;;;;;;;;;;;;;;;5088717;28;19924;-87
2023/01/05 07:52:03;;;;;;;;;;;;;;;;;;5087331;28;20419;-83
2023/01/05 07:54:31;;;;;;;;;;;;;;;;;;5088218;28;20407;-83
2023/01/05 07:57:03;;;;;;;;;;;;;;;;;;5076026;28;19931;-83
2023/01/05 07:59:31;;;;;;;;;;;;;;;;;;5083612;28;19928;-84
2023/01/05 08:01:58;;;;;;;;;;;;;;;;;;5086502;28;19931;-82
2023/01/05 08:04:31;;;;;;;;;;;;;;;;;;5070523;28;19940;-82
2023/01/05 08:06:58;;;;;;;;;;;;;;;;;;5065770;28;21193;-82
2023/01/05 08:12:16;;;;;;;;;;;;;;;;;;5071773;28;20288;-84
2023/01/05 08:14:44;;;;;;;;;;;;;;;;;;5075011;28;20018;-81
2023/01/05 08:17:18;;;;;;;5.35;1.75;;;;;;;;;;5060335;28;19932;-84
2023/01/05 08:19:50;;;;;;;4.15;1.33;;;;;;;;;;5069978;28;20044;-83
2023/01/05 08:22:23;;;;;;;2.78;1.35;;;;;;;;;;5069238;28;20060;-83
2023/01/05 08:24:51;;;;;;;5.38;1.60;;;;;;;;;;5053683;28;20051;-85
2023/01/05 08:27:19;;;;;;;2.47;1.20;;;;;;;;;;5057945;28;20052;-83
2023/01/05 08:29:52;;;;;;;4.35;1.20;;;;;;;;;;5070353;28;20060;-84
2023/01/05 08:32:26;;;;;;;4.18;1.50;;;;;;;;;;5065848;28;20051;-81
2023/01/05 08:34:59;;;;;;;7.78;1.73;;;;;;;;;;5059463;28;20056;-85
2023/01/05 08:37:26;;;;;;;;;;;;;;;;;;5061906;28;20106;-85
2023/01/05 08:39:59;;;;;;;3.50;1.25;;;;;;;;;;5067429;28;20542;-84
2023/01/05 08:42:26;;;;;;;;;;;;;;;;;;5073015;28;20056;-83
2023/01/05 08:44:59;;;;;;;3.70;1.23;;;;;;;;;;5073453;28;19928;-82
2023/01/05 08:47:33;;;;;;;2.15;1.27;;;;;;;;;;5072335;28;20063;-82
2023/01/05 08:50:02;;;;;;;4.53;1.52;;;;;;;;;;5077263;28;20056;-82
2023/01/05 08:52:29;;;;;;;4.25;1.13;;;;;;;;;;5069189;28;20067;-84
2023/01/05 08:55:02;;;;;;;;;;;;;;;;;;5065264;28;20056;-83
2023/01/05 08:57:30;;;;;;;;;;;;;;;;;;5066327;28;19928;-83
2023/01/05 09:00:02;;;;;;;;;;;;;;;;;;5068136;28;19935;-83
2023/01/05 09:02:30;;;;;;;;;;;;;;;;;;5063869;28;19928;-84
2023/01/05 09:04:57;;;;;;;;;;;;;;;;;;5065789;28;19928;-83
2023/01/05 09:07:27;;;;;;;;;;;;;;;;;;5075198;28;19928;-82
2023/01/05 09:09:54;;;;;;;;;;;;;;;;;;5054645;28;19947;-82
2023/01/05 09:12:22;;;;;;;;;;;;;;;;;;5070651;28;19936;-86
2023/01/05 09:14:54;;;;;;;;;;;;;;;;;;5062172;28;19924;-84
2023/01/05 09:17:22;;;;;;;;;;;;;;;;;;5066556;28;19931;-82
2023/01/05 09:19:54;;;;;;;;;;;;;;;;;;5064355;28;19935;-83
2023/01/05 09:22:22;;;;;;;;;;;;;;;;;;5063658;28;19994;-83
2023/01/05 09:24:49;;;;;;;;;;;;;;;;;;5061863;28;19932;-84
2023/01/05 09:27:17;;;;;;;;;;;;;;;;;;5075701;28;19920;-81
2023/01/05 09:29:44;;;;;;;;;;;;;;;;;;5071203;28;19928;-83
2023/01/05 09:32:17;;;;;;;;;;;;;;;;;;5062035;28;20733;-85
2023/01/05 09:34:49;;;;;;;;;;;;;;;;;;5065908;28;19928;-81
2023/01/05 09:37:17;;;;;;;;;;;;;;;;;;5071156;28;20384;-82
2023/01/05 09:39:44;;;;;;;;;;;;;;;;;;5081418;28;19928;-82
2023/01/05 09:42:12;;;;;;;;;;;;;;;;;;5073867;28;19928;-82
2023/01/05 09:44:44;;;;;;;;;;;;;;;;;;5069436;28;20407;-83
2023/01/05 09:47:12;;;;;;;;;;;;;;;;;;5067636;28;20364;-85
2023/01/05 09:49:44;;;;;;;;;;;;;;;;;;5062691;28;19999;-83
2023/01/05 09:52:12;;;;;;;;;;;;;;;;;;5071350;28;20490;-83
2023/01/05 09:54:44;;;;;;;;;;;;;;;;;;5067931;28;19927;-82
2023/01/05 09:57:12;;;;;;;;;;;;;;;;;;5065804;28;20783;-82
2023/01/05 09:59:39;;;;;;;;;;;;;;;;;;5064393;28;19928;-81
2023/01/05 10:02:07;;;;;;;;;;;;;;;;;;5072594;28;19928;-81
2023/01/05 10:04:34;;;;;;;;;;;;;;;;;;5037004;28;19928;-83
2023/01/05 10:07:02;;;;;;;;;;;;;;;;;;5068680;28;20109;-83
2023/01/05 10:09:30;;;;;;;;;;;;;;;;;;5069355;28;19927;-83
2023/01/05 10:14:48;;;;;;;;;;;;;;;;;;5075425;28;20685;-82
2023/01/05 10:17:20;;;;;;;;;;;;;;;;;;5067762;28;20487;-83
2023/01/05 10:19:53;;;;;;;;;;;;;;;;;;5071935;28;20503;-81
2023/01/05 10:22:21;;;;;;;;;;;;;;;;;;5074059;28;19928;-84
2023/01/05 10:24:48;;;;;;;;;;;;;;;;;;5070559;28;19927;-81
2023/01/05 10:27:21;;;;;;;;;;;;;;;;;;5062167;28;20365;-82
2023/01/05 10:29:48;;;;;;;;;;;;;;;;;;5065675;28;19924;-79
2023/01/05 10:32:16;;;;;;;;;;;;;;;;;;5070833;28;19928;-81
2023/01/05 10:34:43;;;;;;;;;;;;;;;;;;5065038;28;20032;-81
2023/01/05 10:37:11;;;;;;;;;;;;;;;;;;5071547;28;19935;-82
2023/01/05 10:39:38;;;;;;;;;;;;;;;;;;5067019;28;20490;-81
2023/01/05 10:42:06;;;;;;;;;;;;;;;;;;5067499;28;20387;-82
2023/01/05 10:44:39;;;;;;;;;;;;;;;;;;5066681;28;20503;-81
2023/01/05 10:47:11;;;;;;;;;;;;;;;;;;5072606;28;19920;-81
2023/01/05 10:49:39;;;;;;;;;;;;;;;;;;5068451;28;19928;-82
2023/01/05 10:52:11;;;;;;;;;;;;;;;;;;5073712;27;19935;-82
2023/01/05 10:54:39;;;;;;;;;;;;;;;;;;5069491;28;19928;-81
2023/01/05 10:57:11;;;;;;;;;;;;;;;;;;5070212;28;20121;-82
2023/01/05 10:59:44;;;;;;;;;;;;;;;;;;5066464;28;19928;-81
2023/01/05 11:02:11;;;;;;;;;;;;;;;;;;5062364;28;19939;-81
2023/01/05 11:04:39;;;;;;;;;;;;;;;;;;5047635;28;20273;-82
2023/01/05 11:07:06;;;;;;;;;;;;;;;;;;5071855;28;19951;-81
2023/01/05 11:09:39;;;;;;;;;;;;;;;;;;5073603;27;20300;-81
2023/01/05 11:12:06;;;;;;;;;;;;;;;;;;5075729;28;20577;-80
2023/01/05 11:14:39;;;;;;;;;;;;;;;;;;5069536;28;19928;-81
2023/01/05 11:17:11;;;;;;;;;;;;;;;;;;5072943;28;19928;-82
2023/01/05 11:19:39;;;;;;;;;;;;;;;;;;5067045;28;19935;-82
2023/01/05 11:22:11;;;;;;;;;;;;;;;;;;5067037;28;19928;-82
2023/01/05 11:24:45;;;;;;;;;;;;;;;;;;5070740;28;19928;-81
2023/01/05 11:27:18;;;;;;;;;;;;;;;;;;5070047;28;19928;-81
2023/01/05 11:29:51;;;;;;;;;;;;;;;;;;5066470;28;19931;-81
2023/01/05 11:32:23;;;;;;;;;;;;;;;;;;5054928;28;20312;-81
2023/01/05 11:34:51;;;;;;;;;;;;;;;;;;5060849;28;19994;-81
2023/01/05 11:37:18;;;;;;;;;;;;;;;;;;5074369;28;20513;-81
2023/01/05 11:39:51;;;;;;;;;;;;;;;;;;5064534;28;19927;-83
2023/01/05 11:42:24;;;;;;;;;;;;;;;;;;5061420;28;19928;-81
2023/01/05 11:44:51;;;;;;;;;;;;;;;;;;5060305;28;19935;-81
2023/01/05 11:47:19;;;;;;;;;;;;;;;;;;5064063;28;19928;-81
2023/01/05 11:49:46;;;;;;;;;;;;;;;;;;5062138;28;19927;-81
2023/01/05 11:52:19;;;;;;;;;;;;;;;;;;5069371;28;19935;-81
2023/01/05 11:54:46;;;;;;;;;;;;;;;;;;5066528;28;19928;-81
2023/01/05 11:57:14;;;;;;;;;;;;;;;;;;5062311;28;20457;-82
2023/01/05 11:59:41;;;;;;;;;;;;;;;;;;5068709;28;19928;-83
2023/01/05 12:02:09;;;;;;;;;;;;;;;;;;5065852;28;19928;-81
2023/01/05 12:04:36;;;;;;;;;;;;;;;;;;5040367;28;19936;-81
2023/01/05 12:07:04;;;;;;;;;;;;;;;;;;5063833;28;20285;-81
2023/01/05 12:09:36;;;;;;;;;;;;;;;;;;5063569;28;19928;-84
2023/01/05 12:12:04;;;;;;;;;;;;;;;;;;5067542;28;19924;-82
2023/01/05 12:14:36;;;;;;;;;;;;;;;;;;5068942;28;19928;-82
2023/01/05 12:17:08;;;;;;;;;;;;;;;;;;5068042;28;20368;-81
2023/01/05 12:19:41;;;;;;;;;;;;;;;;;;5074823;28;19928;-81
2023/01/05 12:22:13;;;;;;;;;;;;;;;;;;5072806;28;20312;-81
2023/01/05 12:24:47;;;;;;;;;;;;;;;;;;5067598;28;19928;-81
2023/01/05 12:27:20;;;;;;;;;;;;;;;;;;5067895;28;19928;-82
2023/01/05 12:29:52;;;;;;;;;;;;;;;;;;5074544;28;19928;-82
2023/01/05 12:32:20;;;;;;;;;;;;;;;;;;5076252;28;19935;-81
2023/01/05 12:34:47;;;;;;;;;;;;;;;;;;5073535;28;19947;-81
2023/01/05 12:37:16;;;;;;;;;;;;;;;;;;5068258;28;19928;-81
2023/01/05 12:39:44;;;;;;;;;;;;;;;;;;5070169;28;19935;-81
2023/01/05 12:42:11;;;;;;;;;;;;;;;;;;5067012;28;19935;-81
2023/01/05 12:44:44;;;;;;;;;;;;;;;;;;5064616;28;20300;-82
2023/01/05 12:47:12;;;;;;;;;;;;;;;;;;5067794;28;19924;-81
2023/01/05 12:49:40;;;;;;;;;;;;;;;;;;5070099;28;19939;-81
2023/01/05 12:52:12;;;;;;;;;;;;;;;;;;5064959;28;19935;-81
2023/01/05 12:54:40;;;;;;;;;;;;;;;;;;5073149;28;19938;-81
2023/01/05 12:57:13;;;;;;;;;;;;;;;;;;5064939;28;19959;-82
2023/01/05 12:59:40;;;;;;;;;;;;;;;;;;5064915;28;19928;-81
2023/01/05 13:02:14;;;;;;;;;;;;;;;;;;5065145;28;19935;-82
2023/01/05 13:04:51;;;;;;;;;;;;;;;;;;5043964;28;19931;-81
2023/01/05 13:07:18;;;;;;;;;;;;;;;;;;5062363;28;19928;-81
2023/01/05 13:09:46;;;;;;;;;;;;;;;;;;5063688;28;20411;-82
2023/01/05 13:12:13;;;;;;;;;;;;;;;;;;5069491;28;19928;-82
2023/01/05 13:14:51;;;;;;;;;;;;;;;;;;5067680;28;19928;-81
2023/01/05 13:17:23;;;;;;;;;;;;;;;;;;5067023;28;20297;-83
2023/01/05 13:19:51;;;;;;;;;;;;;;;;;;5071805;28;19928;-81
2023/01/05 13:22:23;;;;;;;;;;;;;;;;;;5068038;28;20743;-81
2023/01/05 13:24:51;;;;;;;;;;;;;;;;;;5067253;28;20367;-81
2023/01/05 13:27:25;;;;;;;;;;;;;;;;;;5074954;28;19934;-81
2023/01/05 13:29:56;;;;;;;;;;;;;;;;;;5068178;28;19935;-81
2023/01/05 13:32:28;;;;;;;;;;;;;;;;;;5063869;28;20703;-81
2023/01/05 13:34:56;;;;;;;;;;;;;;;;;;5068457;28;19936;-82
2023/01/05 13:37:28;;;;;;;;;;;;;;;;;;5072516;28;19935;-81
2023/01/05 13:39:56;;;;;;;;;;;;;;;;;;5061322;28;19927;-82
2023/01/05 13:42:24;;;;;;;;;;;;;;;;;;5061856;28;19928;-81
2023/01/05 13:44:56;;;;;;;;;;;;;;;;;;5062568;28;21529;-81
2023/01/05 13:47:28;;;;;;;;;;;;;;;;;;5066323;28;20429;-81
2023/01/05 13:50:01;;;;;;;;;;;;;;;;;;5068381;28;19939;-84
2023/01/05 13:52:29;;;;;;;;;;;;;;;;;;5060055;28;19939;-82
2023/01/05 13:55:00;;;;;;;;;;;;;;;;;;5064056;28;19939;-82
2023/01/05 13:57:27;;;;;;;;;;;;;;;;;;5059845;28;21113;-83
2023/01/05 14:00:00;;;;;;;;;;;;;;;;;;5074799;28;19932;-82
2023/01/05 14:02:38;;;;;;;;;;;;;;;;;;5078126;28;19934;-81
2023/01/05 14:05:11;;;;;;;;;;;;;;;;;;5044309;28;19924;-81
2023/01/05 14:07:43;;;;;;;;;;;;;;;;;;5063690;28;19935;-82
2023/01/05 14:10:16;;;;;;;;;;;;;;;;;;5062316;28;19927;-81
2023/01/05 14:12:43;;;;;;;;;;;;;;;;;;5059923;28;19947;-81
2023/01/05 14:15:16;;;;;;;;;;;;;;;;;;5073185;28;20292;-81
2023/01/05 14:17:48;;;;;;;;;;;;;;;;;;5064603;28;19928;-81
2023/01/05 14:20:16;;;;;;;;;;;;;;;;;;5063715;28;20444;-81
2023/01/05 14:22:44;;;;;;;;;;;;;;;;;;5068901;28;19927;-82
2023/01/05 14:25:12;;;;;;;;;;;;;;;;;;5071366;28;21154;-81
2023/01/05 14:27:39;;;;;;;;;;;;;;;;;;5069027;28;19928;-81
2023/01/05 14:30:07;;;;;;;;;;;;;;;;;;5083751;27;19950;-82
2023/01/05 14:32:35;;;;;;;;;;;;;;;;;;5064986;28;19927;-81
2023/01/05 14:35:02;;;;;;;;;;;;;;;;;;5068513;28;19928;-81
2023/01/05 14:37:30;;;;;;;;;;;;;;;;;;5057310;28;20654;-81
2023/01/05 14:40:02;;;;;;;;;;;;;;;;;;5062600;28;19935;-81
2023/01/05 14:42:30;;;;;;;;;;;;;;;;;;5064609;28;20473;-81
2023/01/05 14:45:05;;;;;;;;;;;;;;;;;;5064463;28;20789;-82
2023/01/05 14:47:33;;;;;;;;;;;;;;;;;;5066349;28;19939;-81
2023/01/05 14:50:05;;;;;;;;;;;;;;;;;;5065171;28;21105;-81
2023/01/05 14:52:33;;;;;;;;;;;;;;;;;;5056044;28;20496;-82
2023/01/05 14:55:00;;;;;;;;;;;;;;;;;;5052450;28;19924;-82
2023/01/05 14:57:33;;;;;;;;;;;;;;;;;;5054438;28;19928;-82
2023/01/05 15:00:05;;;;;;;;;;;;;;;;;;5051626;28;19982;-82
2023/01/05 15:02:33;;;;;;;;;;;;;;;;;;5064825;28;19920;-81
2023/01/05 15:05:00;;;;;;;;;;;;;;;;;;5036574;28;19935;-81
2023/01/05 15:07:33;;;;;;;;;;;;;;;;;;5058674;28;19928;-82
2023/01/05 15:10:00;;;;;;;;;;;;;;;;;;5062849;28;19931;-82
2023/01/05 15:12:33;;;;;;;;;;;;;;;;;;5068809;28;20411;-81
2023/01/05 15:15:05;;;;;;;;;;;;;;;;;;5066617;28;19928;-81
2023/01/05 15:17:33;;;;;;;;;;;;;;;;;;5064892;28;19936;-81
2023/01/05 15:20:05;;;;;;;;;;;;;;;;;;5065199;28;19935;-82
2023/01/05 15:22:38;;;;;;;;;;;;;;;;;;5070514;28;19928;-82
2023/01/05 15:25:10;;;;;;;;;;;;;;;;;;5066964;28;19947;-81
2023/01/05 15:27:43;;;;;;;;;;;;;;;;;;5061586;28;19928;-81
2023/01/05 15:30:15;;;;;;;;;;;;;;;;;;5077087;28;19932;-81
2023/01/05 15:32:48;;;;;;;;;;;;;;;;;;5077869;28;20283;-82
2023/01/05 15:35:15;;;;;;;;;;;;;;;;;;5082758;28;20292;-81
2023/01/05 15:37:50;;;;;;;;;;;;;;;;;;5083735;28;20320;-82
2023/01/05 15:40:18;;;;;;;;;;;;;;;;;;5086620;28;20307;-83
2023/01/05 15:42:47;;;;;;;;;;;;;;;;;;5088756;28;19931;-82
2023/01/05 15:45:19;;;;;;;;;;;;;;;;;;5078927;28;19924;-82
2023/01/05 15:47:52;;;;;;;;;;;;;;;;;;5084294;28;19920;-81
2023/01/05 15:50:19;;;;;;;;;;;;;;;;;;5086045;28;19920;-83
2023/01/05 15:52:47;;;;;;;;;;;;;;;;;;5076913;28;19920;-82
2023/01/05 15:55:19;;;;;;;;;;;;;;;;;;5083626;28;20268;-82
2023/01/05 15:57:52;;;;;;;;;;;;;;;;;;5085668;28;20299;-81
2023/01/05 16:00:24;;;;;;;;;;;;;;;;;;5082325;28;19923;-82
2023/01/05 16:02:52;;;;;;;;;;;;;;;;;;5079085;28;19924;-83
2023/01/05 16:05:25;;;;;;;;;;;;;;;;;;5087632;28;19924;-83
2023/01/05 16:07:52;;;;;;;;;;;;;;;;;;5084904;28;19928;-80
2023/01/05 16:10:20;;;;;;;;;;;;;;;;;;5086239;28;19963;-82
2023/01/05 16:12:48;;;;;;;;;;;;;;;;;;5096820;28;19939;-81
2023/01/05 16:15:20;;;;;;;;;;;;;;;;;;5079120;28;19935;-81
2023/01/05 16:17:48;;;;;;;;;;;;;;;;;;5077872;28;19924;-81
2023/01/05 16:20:16;;;;;;;;;;;;;;;;;;5079782;28;19927;-82
2023/01/05 16:22:48;;;;;;;;;;;;;;;;;;5080921;28;19924;-82
2023/01/05 16:25:21;;;;;;;;;;;;;;;;;;5082324;28;19927;-80
2023/01/05 16:27:48;;;;;;;;;;;;;;;;;;5085841;28;20296;-80
2023/01/05 16:30:21;;;;;;;;;;;;;;;;;;5080669;28;19920;-80
2023/01/05 16:32:48;;;;;;;;;;;;;;;;;;5082269;28;19923;-82
2023/01/05 16:35:21;;;;;;;;;;;;;;;;;;5086376;28;19920;-80
2023/01/05 16:37:48;;;;;;;;;;;;;;;;;;5081818;28;19931;-82
2023/01/05 16:40:21;;;;;;;;;;;;;;;;;;5075579;28;19928;-81
2023/01/05 16:42:49;;;;;;;;;;;;;;;;;;5079645;28;19924;-81
2023/01/05 16:45:21;;;;;;;;;;;;;;;;;;5079995;28;19924;-81
2023/01/05 16:47:54;;;;;;;;;;;;;;;;;;5080443;28;20276;-81
2023/01/05 16:50:21;;;;;;;;;;;;;;;;;;5084019;28;19923;-81
2023/01/05 16:52:49;;;;;;;;;;;;;;;;;;5078939;28;19927;-81
2023/01/05 16:55:22;;;;;;;;;;;;;;;;;;5096102;28;19924;-81
2023/01/05 16:57:54;;;;;;;;;;;;;;;;;;5083200;28;19921;-81
2023/01/05 17:00:27;;;;;;;;;;;;;;;;;;5090736;28;20842;-81
2023/01/05 17:02:54;;;;;;;;;;;;;;;;;;5083977;28;19931;-81
2023/01/05 17:05:27;;;;;;;;;;;;;;;;;;5085241;28;20528;-81
2023/01/05 17:07:55;;;;;;;;;;;;;;;;;;5081610;28;19924;-82
2023/01/05 17:10:27;;;;;;;;;;;;;;;;;;5082560;28;19935;-82
2023/01/05 17:13:00;;;;;;;;;;;;;;;;;;5084939;28;19936;-81
2023/01/05 17:15:32;;;;;;;;;;;;;;;;;;5078495;28;19931;-82
2023/01/05 17:18:09;;;;;;;;;;;;;;;;;;5080349;28;19920;-81
2023/01/05 17:20:36;;;;;;;;;;;;;;;;;;5080405;28;20376;-81
2023/01/05 17:23:04;;;;;;;;;;;;;;;;;;5085898;28;19924;-81
2023/01/05 17:25:36;;;;;;;;;;;;;;;;;;5081830;28;19920;-81
2023/01/05 17:28:09;;;;;;;;;;;;;;;;;;5085918;28;19928;-81
2023/01/05 17:30:42;;;;;;;;;;;;;;;;;;5077188;28;20306;-81
2023/01/05 17:33:09;;;;;;;;;;;;;;;;;;5086400;28;19920;-80
2023/01/05 17:35:37;;;;;;;;;;;;;;;;;;5090041;28;19931;-80
2023/01/05 17:38:09;;;;;;;;;;;;;;;;;;5083030;28;19924;-81
2023/01/05 17:40:42;;;;;;;;;;;;;;;;;;5084516;28;19924;-80